Phatthaya, Thailand

11:27 AM +07 on April 24, 2017 (GMT +0700)
Na Kluea | | Change Station

Elev 0 ft 12.90 °N, 100.87 °E | Updated 3 minutes ago

Clear
Clear
93.6 °F
Feels Like 114 °F
N
1.2
Wind Variable Wind from NW
Gusts 5.0 mph

Today
High -- | Low -- °F
--% Chance of Precip.
Yesterday
High -- | Low -- °F
Precip. -- in
Pressure 29.86 in
Visibility 3.1 miles
Clouds Few 2000 ft
Heat Index 114 °F
Dew Point 81 °F
Humidity 66%
Rainfall 0.00 in
Snow Depth Not available.
5:59 AM 6:30 PM
Waning Crescent, 8% visible
METAR VTBU 240400Z 18010KT 5000 HZ FEW020CB 32/24 Q1011 NOSIG
Pressure 29.86 in
Visibility 3.1 miles
Clouds Few 2000 ft
Heat Index 114 °F
Dew Point 81 °F
Humidity 66%
Rainfall 0.00 in
Snow Depth Not available.
5:59 AM 6:30 PM
Waning Crescent, 8% visible
METAR VTBU 240400Z 18010KT 5000 HZ FEW020CB 32/24 Q1011 NOSIG

Get Severe Weather Alerts

Thanks for signing up!

Be on the lookout for a verification email in your inbox.

You'll start receiving the daily forecast at 8 AM.

×

10-Day Weather Forecast

No radar image for this location.
×

Almanac

Astronomy

Apr. 24, 2017 Rise Set
Actual Time
Civil Twilight
Nautical Twilight
Astronomical Twilight
Moon
Length of Visible Light
Length of Day
Tomorrow will be .
, % of the Moon is Illuminated

Today's Extremes

Country Highs Country Lows

Community

WunderPhotos

WunderBlog® & News

Nearby

Air Quality

  Air Quality AQ Index Pollutant
Not available.

Snow Depth

Station Depth Elevation

Earthquake Activity

City Distance Mag. Time & Date
Minimum magnitude displayed is 2.5.

Coastal Water Temperatures

Place Temperature

Stations

Nearby Weather Stations

Station Location Temp. Windchill Dew Point Humidity Wind Precip. Elev Updated Type